Clearfield, IA (50840)

12:28 PM CDT on August 29, 2015 (GMT -0500)
IEM | | Change Station
CLOSE
Current Station
Personal Weather Station
Location: Bedford, IA
Elevation: 1149 ft
Nearby Weather Stations

Elev 1149 ft 40.67 °N, 94.72 °W | Updated 19 minutes ago

Overcast
Overcast
64 °F
Feels Like 64 °F
N
0
Wind Variable Wind from North
Gusts 0.0 mph

Today
High -- | Low -- °F
--% Chance of Precip.
Yesterday
High -- | Low -- °F
Precip. -- in
6:41 AM 7:55 PM
Full, 100% visible
Pressure 30.07 in
Visibility 10.0 miles
Clouds Overcast 1400 ft
Dew Point 63 °F
Humidity 94%
Rainfall in
Snow Depth Not available.
UV 3 out of 12
Pollen 8.40 out of 12
Air Quality Not available.
Flu Activity Not available.
METAR KCSQ 291715Z AUTO 05007KT 10SM OVC014 20/18 A3007 RMK AO2
Pressure 30.07 in
Visibility 10.0 miles
Clouds Overcast 1400 ft
Dew Point 63 °F
Humidity 94%
Rainfall in
Snow Depth Not available.
UV 3 out of 12
Pollen 8.40 out of 12
Air Quality Not available.
Flu Activity Not available.
METAR KCSQ 291715Z AUTO 05007KT 10SM OVC014 20/18 A3007 RMK AO2

10-Day Weather Forecast

×

Almanac

Astronomy

Aug. 29, 2015 Rise Set
Actual Time
Civil Twilight
Nautical Twilight
Astronomical Twilight
Moon
Length of Visible Light
Length of Day
Tomorrow will be .
, % of the Moon is Illuminated

Today's Extremes

State Highs State Lows

Community

WunderPhotos

Upload Photos

1,850,734 photos uploaded!

WunderBlogs® & News

Nearby

Air Quality

  Air Quality AQ Index Pollutant
Not available.

Snow Depth

Station Depth Elevation

Earthquake Activity

City Distance Mag. Time & Date
Minimum magnitude displayed is 2.5.

Coastal Water Temperatures

Place Temperature

Stations

Nearby Weather Stations

Station Location Temp. Windchill Dew Point Humidity Wind Precip. Elev Updated Type